KSMN

Lemhi County Airport

Salmon, Idaho, USA
METAR KSMN 211356Z AUTO 00000KT 10SM OVC080 10/09 A2999 RMK AO2 SLP144 T01000089
Observed Flight Rules
May-21 @ 13:56 UTC (45 minutes ago) Visual Flight Rules
Visibility Clouds
10 miles
  • Overcast at 8,000' AGL
Temperatures Readings
Current 10°C / 50°F
Dewpoint 9°C / 48°F
Humidity 94%
Altimeter 29.99" Hg
Pressure 1014.4 hPa
Elevation 1233
METAR KSMN 211356Z AUTO 00000KT 10SM OVC080 10/09 A2999 RMK AO2 SLP144 T01000089
Observed Flight Rules
May-21 @ 13:56 UTC
(45 minutes ago)
VFR
Clouds
  • Overcast at 8,000' AGL
Temperature Dewpoint
10°C / 50°F 9°C / 48°F
Humidity Altimeter Pressure
94% 29.99" Hg 1014.4 hPa